sensor_id;sensor_type;location;lat;lon;timestamp;temperature;humidity
20700;DHT22;10511;51.232;9.420;2022-08-14T00:00:21;22.30;99.90
20700;DHT22;10511;51.232;9.420;2022-08-14T00:02:48;22.30;99.90
20700;DHT22;10511;51.232;9.420;2022-08-14T00:05:17;22.40;99.90
20700;DHT22;10511;51.232;9.420;2022-08-14T00:07:45;22.30;99.90
20700;DHT22;10511;51.232;9.420;2022-08-14T00:10:15;22.10;99.90
20700;DHT22;10511;51.232;9.420;2022-08-14T00:12:46;21.80;99.90
20700;DHT22;10511;51.232;9.420;2022-08-14T00:15:16;21.50;99.90
20700;DHT22;10511;51.232;9.420;2022-08-14T00:17:43;21.30;99.90
20700;DHT22;10511;51.232;9.420;2022-08-14T00:20:10;21.20;99.90
20700;DHT22;10511;51.232;9.420;2022-08-14T00:22:38;21.20;99.90
20700;DHT22;10511;51.232;9.420;2022-08-14T00:25:06;21.20;99.90
20700;DHT22;10511;51.232;9.420;2022-08-14T00:27:33;21.20;99.90
20700;DHT22;10511;51.232;9.420;2022-08-14T00:30:02;21.20;99.90
20700;DHT22;10511;51.232;9.420;2022-08-14T00:32:29;21.20;99.90
20700;DHT22;10511;51.232;9.420;2022-08-14T00:34:57;21.20;99.90
20700;DHT22;10511;51.232;9.420;2022-08-14T00:37:26;21.20;99.90
20700;DHT22;10511;51.232;9.420;2022-08-14T00:39:53;21.10;99.90
20700;DHT22;10511;51.232;9.420;2022-08-14T00:42:20;21.20;99.90
20700;DHT22;10511;51.232;9.420;2022-08-14T00:44:48;21.10;99.90
20700;DHT22;10511;51.232;9.420;2022-08-14T00:47:17;21.00;99.90
20700;DHT22;10511;51.232;9.420;2022-08-14T00:49:46;20.80;99.90
20700;DHT22;10511;51.232;9.420;2022-08-14T00:52:14;20.60;99.90
20700;DHT22;10511;51.232;9.420;2022-08-14T00:54:41;20.40;99.90
20700;DHT22;10511;51.232;9.420;2022-08-14T00:57:08;20.30;99.90
20700;DHT22;10511;51.232;9.420;2022-08-14T00:59:35;20.30;99.90
20700;DHT22;10511;51.232;9.420;2022-08-14T01:02:03;20.30;99.90
20700;DHT22;10511;51.232;9.420;2022-08-14T01:04:33;20.20;99.90
20700;DHT22;10511;51.232;9.420;2022-08-14T01:07:00;20.20;99.90
20700;DHT22;10511;51.232;9.420;2022-08-14T01:09:28;20.20;99.90
20700;DHT22;10511;51.232;9.420;2022-08-14T01:11:56;20.30;99.90
20700;DHT22;10511;51.232;9.420;2022-08-14T01:14:23;20.40;99.90
20700;DHT22;10511;51.232;9.420;2022-08-14T01:16:50;20.40;99.90
20700;DHT22;10511;51.232;9.420;2022-08-14T01:19:17;20.20;99.90
20700;DHT22;10511;51.232;9.420;2022-08-14T01:22:02;20.10;99.90
20700;DHT22;10511;51.232;9.420;2022-08-14T01:24:32;20.00;99.90
20700;DHT22;10511;51.232;9.420;2022-08-14T01:27:01;19.90;99.90
20700;DHT22;10511;51.232;9.420;2022-08-14T01:29:29;19.80;99.90
20700;DHT22;10511;51.232;9.420;2022-08-14T01:31:57;19.70;99.90
20700;DHT22;10511;51.232;9.420;2022-08-14T01:34:28;19.70;99.90
20700;DHT22;10511;51.232;9.420;2022-08-14T01:36:56;19.60;99.90
20700;DHT22;10511;51.232;9.420;2022-08-14T01:39:24;19.60;99.90
20700;DHT22;10511;51.232;9.420;2022-08-14T01:41:52;19.60;99.90
20700;DHT22;10511;51.232;9.420;2022-08-14T01:44:26;19.60;99.90
20700;DHT22;10511;51.232;9.420;2022-08-14T01:46:56;19.60;99.90
20700;DHT22;10511;51.232;9.420;2022-08-14T01:49:24;19.70;99.90
20700;DHT22;10511;51.232;9.420;2022-08-14T01:51:51;19.60;99.90
20700;DHT22;10511;51.232;9.420;2022-08-14T01:54:23;19.60;99.90
20700;DHT22;10511;51.232;9.420;2022-08-14T01:56:51;19.60;99.90
20700;DHT22;10511;51.232;9.420;2022-08-14T01:59:21;19.60;99.90
20700;DHT22;10511;51.232;9.420;2022-08-14T02:01:53;19.60;99.90
20700;DHT22;10511;51.232;9.420;2022-08-14T02:04:23;19.60;99.90
20700;DHT22;10511;51.232;9.420;2022-08-14T02:06:51;19.50;99.90
20700;DHT22;10511;51.232;9.420;2022-08-14T02:09:19;19.50;99.90
20700;DHT22;10511;51.232;9.420;2022-08-14T02:11:48;19.40;99.90
20700;DHT22;10511;51.232;9.420;2022-08-14T02:14:16;19.30;99.90
20700;DHT22;10511;51.232;9.420;2022-08-14T02:16:45;19.30;99.90
20700;DHT22;10511;51.232;9.420;2022-08-14T02:19:14;19.20;99.90
20700;DHT22;10511;51.232;9.420;2022-08-14T02:21:42;19.10;99.90
20700;DHT22;10511;51.232;9.420;2022-08-14T02:24:11;19.10;99.90
20700;DHT22;10511;51.232;9.420;2022-08-14T02:26:40;19.10;99.90
20700;DHT22;10511;51.232;9.420;2022-08-14T02:29:11;19.10;99.90
20700;DHT22;10511;51.232;9.420;2022-08-14T02:31:42;19.10;99.90
20700;DHT22;10511;51.232;9.420;2022-08-14T02:34:10;19.20;99.90
20700;DHT22;10511;51.232;9.420;2022-08-14T02:36:38;19.10;99.90
20700;DHT22;10511;51.232;9.420;2022-08-14T02:39:07;19.10;99.90
20700;DHT22;10511;51.232;9.420;2022-08-14T02:41:34;18.90;99.90
20700;DHT22;10511;51.232;9.420;2022-08-14T02:44:02;18.90;99.90
20700;DHT22;10511;51.232;9.420;2022-08-14T02:46:31;18.80;99.90
20700;DHT22;10511;51.232;9.420;2022-08-14T02:48:59;18.80;99.90
20700;DHT22;10511;51.232;9.420;2022-08-14T02:51:27;18.80;99.90
20700;DHT22;10511;51.232;9.420;2022-08-14T02:53:55;18.80;99.90
20700;DHT22;10511;51.232;9.420;2022-08-14T02:56:23;18.70;99.90
20700;DHT22;10511;51.232;9.420;2022-08-14T02:58:51;18.70;99.90
20700;DHT22;10511;51.232;9.420;2022-08-14T03:01:19;18.70;99.90
20700;DHT22;10511;51.232;9.420;2022-08-14T03:03:49;18.70;99.90
20700;DHT22;10511;51.232;9.420;2022-08-14T03:06:18;18.70;99.90
20700;DHT22;10511;51.232;9.420;2022-08-14T03:08:47;18.70;99.90
20700;DHT22;10511;51.232;9.420;2022-08-14T03:11:14;18.70;99.90
20700;DHT22;10511;51.232;9.420;2022-08-14T03:13:43;18.70;99.90
20700;DHT22;10511;51.232;9.420;2022-08-14T03:16:12;18.60;99.90
20700;DHT22;10511;51.232;9.420;2022-08-14T03:18:40;18.70;99.90
20700;DHT22;10511;51.232;9.420;2022-08-14T03:21:11;18.70;99.90
20700;DHT22;10511;51.232;9.420;2022-08-14T03:23:39;18.70;99.90
20700;DHT22;10511;51.232;9.420;2022-08-14T03:26:08;18.70;99.90
20700;DHT22;10511;51.232;9.420;2022-08-14T03:28:35;18.60;99.90
20700;DHT22;10511;51.232;9.420;2022-08-14T03:31:05;18.60;99.90
20700;DHT22;10511;51.232;9.420;2022-08-14T03:33:32;18.60;99.90
20700;DHT22;10511;51.232;9.420;2022-08-14T03:36:02;18.60;99.90
20700;DHT22;10511;51.232;9.420;2022-08-14T03:38:36;18.50;99.90
20700;DHT22;10511;51.232;9.420;2022-08-14T03:41:07;18.50;99.90
20700;DHT22;10511;51.232;9.420;2022-08-14T03:43:39;18.50;99.90
20700;DHT22;10511;51.232;9.420;2022-08-14T03:46:06;18.50;99.90
20700;DHT22;10511;51.232;9.420;2022-08-14T03:48:33;18.50;99.90
20700;DHT22;10511;51.232;9.420;2022-08-14T03:51:00;18.40;99.90
20700;DHT22;10511;51.232;9.420;2022-08-14T03:53:27;18.40;99.90
20700;DHT22;10511;51.232;9.420;2022-08-14T03:55:55;18.40;99.90
20700;DHT22;10511;51.232;9.420;2022-08-14T03:58:23;18.40;99.90
20700;DHT22;10511;51.232;9.420;2022-08-14T04:00:50;18.30;99.90
20700;DHT22;10511;51.232;9.420;2022-08-14T04:03:17;18.30;99.90
20700;DHT22;10511;51.232;9.420;2022-08-14T04:05:44;18.30;99.90
20700;DHT22;10511;51.232;9.420;2022-08-14T04:08:11;18.30;99.90
20700;DHT22;10511;51.232;9.420;2022-08-14T04:10:38;18.40;99.90
20700;DHT22;10511;51.232;9.420;2022-08-14T04:13:06;18.30;99.90
20700;DHT22;10511;51.232;9.420;2022-08-14T04:15:33;18.40;99.90
20700;DHT22;10511;51.232;9.420;2022-08-14T04:18:03;18.40;99.90
20700;DHT22;10511;51.232;9.420;2022-08-14T04:20:33;18.40;99.90
20700;DHT22;10511;51.232;9.420;2022-08-14T04:23:00;18.50;99.90
20700;DHT22;10511;51.232;9.420;2022-08-14T04:25:31;18.50;99.90
20700;DHT22;10511;51.232;9.420;2022-08-14T04:28:00;18.70;99.90
20700;DHT22;10511;51.232;9.420;2022-08-14T04:30:29;18.80;99.90
20700;DHT22;10511;51.232;9.420;2022-08-14T04:32:57;19.00;99.90
20700;DHT22;10511;51.232;9.420;2022-08-14T04:35:24;19.00;99.90
20700;DHT22;10511;51.232;9.420;2022-08-14T04:37:51;18.80;99.90
20700;DHT22;10511;51.232;9.420;2022-08-14T04:40:35;18.60;99.90
20700;DHT22;10511;51.232;9.420;2022-08-14T04:43:20;18.40;99.90
20700;DHT22;10511;51.232;9.420;2022-08-14T04:46:04;18.30;99.90
20700;DHT22;10511;51.232;9.420;2022-08-14T04:48:32;18.20;99.90
20700;DHT22;10511;51.232;9.420;2022-08-14T04:50:59;18.20;99.90
20700;DHT22;10511;51.232;9.420;2022-08-14T04:53:28;18.10;99.90
20700;DHT22;10511;51.232;9.420;2022-08-14T04:55:56;18.10;99.90
20700;DHT22;10511;51.232;9.420;2022-08-14T04:58:26;18.10;99.90
20700;DHT22;10511;51.232;9.420;2022-08-14T05:00:55;18.10;99.90
20700;DHT22;10511;51.232;9.420;2022-08-14T05:03:25;18.20;99.90
20700;DHT22;10511;51.232;9.420;2022-08-14T05:05:53;18.20;99.90
20700;DHT22;10511;51.232;9.420;2022-08-14T05:08:21;18.20;99.90
20700;DHT22;10511;51.232;9.420;2022-08-14T05:10:50;18.20;99.90
20700;DHT22;10511;51.232;9.420;2022-08-14T05:13:18;18.20;99.90
20700;DHT22;10511;51.232;9.420;2022-08-14T05:15:45;18.30;99.90
20700;DHT22;10511;51.232;9.420;2022-08-14T05:18:15;18.30;99.90
20700;DHT22;10511;51.232;9.420;2022-08-14T05:20:45;18.40;99.90
20700;DHT22;10511;51.232;9.420;2022-08-14T05:23:13;18.50;99.90
20700;DHT22;10511;51.232;9.420;2022-08-14T05:25:41;18.60;99.90
20700;DHT22;10511;51.232;9.420;2022-08-14T05:28:09;18.70;99.90
20700;DHT22;10511;51.232;9.420;2022-08-14T05:30:36;18.90;99.90
20700;DHT22;10511;51.232;9.420;2022-08-14T05:33:03;19.20;99.90
20700;DHT22;10511;51.232;9.420;2022-08-14T05:35:30;19.20;99.90
20700;DHT22;10511;51.232;9.420;2022-08-14T05:37:59;19.30;99.90
20700;DHT22;10511;51.232;9.420;2022-08-14T05:40:26;19.20;99.90
20700;DHT22;10511;51.232;9.420;2022-08-14T05:42:53;19.30;99.90
20700;DHT22;10511;51.232;9.420;2022-08-14T05:45:20;19.40;99.90
20700;DHT22;10511;51.232;9.420;2022-08-14T05:47:47;19.50;99.90
20700;DHT22;10511;51.232;9.420;2022-08-14T05:50:14;19.60;99.90
20700;DHT22;10511;51.232;9.420;2022-08-14T05:52:41;19.60;99.90
20700;DHT22;10511;51.232;9.420;2022-08-14T05:55:10;19.70;99.90
20700;DHT22;10511;51.232;9.420;2022-08-14T05:57:51;19.80;99.90
20700;DHT22;10511;51.232;9.420;2022-08-14T06:00:21;20.00;99.90
20700;DHT22;10511;51.232;9.420;2022-08-14T06:02:48;20.20;99.90
20700;DHT22;10511;51.232;9.420;2022-08-14T06:05:15;20.10;99.90
20700;DHT22;10511;51.232;9.420;2022-08-14T06:07:42;20.20;99.90
20700;DHT22;10511;51.232;9.420;2022-08-14T06:10:10;20.10;99.90
20700;DHT22;10511;51.232;9.420;2022-08-14T06:12:37;20.20;99.90
20700;DHT22;10511;51.232;9.420;2022-08-14T06:15:06;20.30;99.90
20700;DHT22;10511;51.232;9.420;2022-08-14T06:17:42;20.40;99.90
20700;DHT22;10511;51.232;9.420;2022-08-14T06:20:11;20.60;99.90
20700;DHT22;10511;51.232;9.420;2022-08-14T06:22:40;20.80;99.90
20700;DHT22;10511;51.232;9.420;2022-08-14T06:25:08;20.90;99.90
20700;DHT22;10511;51.232;9.420;2022-08-14T06:27:38;21.00;99.90
20700;DHT22;10511;51.232;9.420;2022-08-14T06:30:07;21.10;99.90
20700;DHT22;10511;51.232;9.420;2022-08-14T06:32:36;21.00;99.90
20700;DHT22;10511;51.232;9.420;2022-08-14T06:35:05;21.10;99.90
20700;DHT22;10511;51.232;9.420;2022-08-14T06:37:40;21.10;99.90
20700;DHT22;10511;51.232;9.420;2022-08-14T06:40:08;21.10;99.90
20700;DHT22;10511;51.232;9.420;2022-08-14T06:42:36;21.20;99.90
20700;DHT22;10511;51.232;9.420;2022-08-14T06:45:05;21.40;99.90
20700;DHT22;10511;51.232;9.420;2022-08-14T06:47:33;21.40;99.90
20700;DHT22;10511;51.232;9.420;2022-08-14T06:50:01;21.40;99.90
20700;DHT22;10511;51.232;9.420;2022-08-14T06:52:28;21.60;99.90
20700;DHT22;10511;51.232;9.420;2022-08-14T06:54:55;21.60;99.90
20700;DHT22;10511;51.232;9.420;2022-08-14T06:57:22;21.70;99.90
20700;DHT22;10511;51.232;9.420;2022-08-14T06:59:51;21.80;99.90
20700;DHT22;10511;51.232;9.420;2022-08-14T07:02:17;22.00;99.90
20700;DHT22;10511;51.232;9.420;2022-08-14T07:05:02;22.00;99.90
20700;DHT22;10511;51.232;9.420;2022-08-14T07:07:46;22.10;99.90
20700;DHT22;10511;51.232;9.420;2022-08-14T07:10:13;22.20;99.90
20700;DHT22;10511;51.232;9.420;2022-08-14T07:12:40;22.30;99.90
20700;DHT22;10511;51.232;9.420;2022-08-14T07:15:09;22.50;99.90
20700;DHT22;10511;51.232;9.420;2022-08-14T07:17:44;22.50;99.90
20700;DHT22;10511;51.232;9.420;2022-08-14T07:20:11;22.60;99.90
20700;DHT22;10511;51.232;9.420;2022-08-14T07:22:37;22.70;99.90
20700;DHT22;10511;51.232;9.420;2022-08-14T07:25:05;22.80;99.90
20700;DHT22;10511;51.232;9.420;2022-08-14T07:27:32;22.80;99.90
20700;DHT22;10511;51.232;9.420;2022-08-14T07:30:02;22.80;99.90
20700;DHT22;10511;51.232;9.420;2022-08-14T07:32:30;22.80;99.90
20700;DHT22;10511;51.232;9.420;2022-08-14T07:34:57;22.90;99.90
20700;DHT22;10511;51.232;9.420;2022-08-14T07:37:24;23.00;99.90
20700;DHT22;10511;51.232;9.420;2022-08-14T07:39:51;23.10;99.90
20700;DHT22;10511;51.232;9.420;2022-08-14T07:42:18;23.20;99.90
20700;DHT22;10511;51.232;9.420;2022-08-14T07:44:45;23.30;99.90
20700;DHT22;10511;51.232;9.420;2022-08-14T07:47:12;23.40;99.90
20700;DHT22;10511;51.232;9.420;2022-08-14T07:49:41;23.40;99.90
20700;DHT22;10511;51.232;9.420;2022-08-14T07:52:11;23.50;99.90
20700;DHT22;10511;51.232;9.420;2022-08-14T07:54:40;23.60;99.90
20700;DHT22;10511;51.232;9.420;2022-08-14T07:57:07;23.70;99.90
20700;DHT22;10511;51.232;9.420;2022-08-14T07:59:34;23.70;99.90
20700;DHT22;10511;51.232;9.420;2022-08-14T08:02:03;23.80;99.90
20700;DHT22;10511;51.232;9.420;2022-08-14T08:04:30;23.80;99.90
20700;DHT22;10511;51.232;9.420;2022-08-14T08:06:59;23.80;99.90
20700;DHT22;10511;51.232;9.420;2022-08-14T08:09:28;24.10;99.90
20700;DHT22;10511;51.232;9.420;2022-08-14T08:11:57;24.20;99.90
20700;DHT22;10511;51.232;9.420;2022-08-14T08:14:25;24.30;99.90
20700;DHT22;10511;51.232;9.420;2022-08-14T08:16:53;24.50;99.90
20700;DHT22;10511;51.232;9.420;2022-08-14T08:19:20;24.50;99.90
20700;DHT22;10511;51.232;9.420;2022-08-14T08:21:48;24.70;99.90
20700;DHT22;10511;51.232;9.420;2022-08-14T08:24:16;24.90;99.90
20700;DHT22;10511;51.232;9.420;2022-08-14T08:26:43;24.80;99.90
20700;DHT22;10511;51.232;9.420;2022-08-14T08:29:18;24.90;99.90
20700;DHT22;10511;51.232;9.420;2022-08-14T08:31:46;24.80;99.90
20700;DHT22;10511;51.232;9.420;2022-08-14T08:34:14;24.90;99.90
20700;DHT22;10511;51.232;9.420;2022-08-14T08:36:41;25.10;99.90
20700;DHT22;10511;51.232;9.420;2022-08-14T08:39:09;25.20;99.90
20700;DHT22;10511;51.232;9.420;2022-08-14T08:41:42;25.20;99.90
20700;DHT22;10511;51.232;9.420;2022-08-14T08:44:09;25.40;99.90
20700;DHT22;10511;51.232;9.420;2022-08-14T08:46:36;25.40;99.90
20700;DHT22;10511;51.232;9.420;2022-08-14T08:49:05;25.20;99.90
20700;DHT22;10511;51.232;9.420;2022-08-14T08:51:33;25.40;99.90
20700;DHT22;10511;51.232;9.420;2022-08-14T08:54:05;25.60;99.90
20700;DHT22;10511;51.232;9.420;2022-08-14T08:56:42;25.60;99.90
20700;DHT22;10511;51.232;9.420;2022-08-14T08:59:19;25.60;99.90
20700;DHT22;10511;51.232;9.420;2022-08-14T09:01:49;25.90;99.90
20700;DHT22;10511;51.232;9.420;2022-08-14T09:04:17;26.00;99.90
20700;DHT22;10511;51.232;9.420;2022-08-14T09:06:45;26.30;99.90
20700;DHT22;10511;51.232;9.420;2022-08-14T09:09:20;26.50;99.90
20700;DHT22;10511;51.232;9.420;2022-08-14T09:11:49;26.60;99.90
20700;DHT22;10511;51.232;9.420;2022-08-14T09:14:16;26.60;99.90
20700;DHT22;10511;51.232;9.420;2022-08-14T09:16:43;26.90;99.90
20700;DHT22;10511;51.232;9.420;2022-08-14T09:19:11;27.10;99.90
20700;DHT22;10511;51.232;9.420;2022-08-14T09:21:38;27.10;99.90
20700;DHT22;10511;51.232;9.420;2022-08-14T09:24:06;27.30;99.90
20700;DHT22;10511;51.232;9.420;2022-08-14T09:26:34;27.30;99.90
20700;DHT22;10511;51.232;9.420;2022-08-14T09:29:04;27.20;99.90
20700;DHT22;10511;51.232;9.420;2022-08-14T09:31:33;27.30;99.90
20700;DHT22;10511;51.232;9.420;2022-08-14T09:34:11;27.20;99.90
20700;DHT22;10511;51.232;9.420;2022-08-14T09:36:59;27.30;99.90
20700;DHT22;10511;51.232;9.420;2022-08-14T09:39:41;27.40;99.90
20700;DHT22;10511;51.232;9.420;2022-08-14T09:42:34;27.50;99.90
20700;DHT22;10511;51.232;9.420;2022-08-14T09:45:18;27.60;99.90
20700;DHT22;10511;51.232;9.420;2022-08-14T09:47:48;27.70;99.90
20700;DHT22;10511;51.232;9.420;2022-08-14T09:50:19;27.60;99.90
20700;DHT22;10511;51.232;9.420;2022-08-14T09:52:52;27.70;99.90
20700;DHT22;10511;51.232;9.420;2022-08-14T09:55:21;27.90;99.90
20700;DHT22;10511;51.232;9.420;2022-08-14T09:57:49;27.90;99.90
20700;DHT22;10511;51.232;9.420;2022-08-14T10:00:30;28.00;99.90
20700;DHT22;10511;51.232;9.420;2022-08-14T10:03:02;27.50;99.90
20700;DHT22;10511;51.232;9.420;2022-08-14T10:05:30;27.30;99.90
20700;DHT22;10511;51.232;9.420;2022-08-14T10:07:58;26.80;99.90
20700;DHT22;10511;51.232;9.420;2022-08-14T10:10:28;27.00;99.90
20700;DHT22;10511;51.232;9.420;2022-08-14T10:12:56;27.40;99.90
20700;DHT22;10511;51.232;9.420;2022-08-14T10:15:26;27.60;99.90
20700;DHT22;10511;51.232;9.420;2022-08-14T10:18:05;28.10;99.90
20700;DHT22;10511;51.232;9.420;2022-08-14T10:20:35;27.80;99.90
20700;DHT22;10511;51.232;9.420;2022-08-14T10:23:10;27.80;99.90
20700;DHT22;10511;51.232;9.420;2022-08-14T10:25:41;27.90;99.90
20700;DHT22;10511;51.232;9.420;2022-08-14T10:28:09;28.00;99.90
20700;DHT22;10511;51.232;9.420;2022-08-14T10:30:41;28.10;99.90
20700;DHT22;10511;51.232;9.420;2022-08-14T10:33:23;28.00;99.90
20700;DHT22;10511;51.232;9.420;2022-08-14T10:35:50;28.00;99.90
20700;DHT22;10511;51.232;9.420;2022-08-14T10:38:26;28.10;99.90
20700;DHT22;10511;51.232;9.420;2022-08-14T10:40:53;28.30;99.90
20700;DHT22;10511;51.232;9.420;2022-08-14T10:43:23;28.50;99.90
20700;DHT22;10511;51.232;9.420;2022-08-14T10:45:54;28.80;99.80
20700;DHT22;10511;51.232;9.420;2022-08-14T10:48:23;28.90;99.30
20700;DHT22;10511;51.232;9.420;2022-08-14T10:50:50;28.70;99.10
20700;DHT22;10511;51.232;9.420;2022-08-14T10:53:32;28.70;99.20
20700;DHT22;10511;51.232;9.420;2022-08-14T10:56:03;28.90;99.00
20700;DHT22;10511;51.232;9.420;2022-08-14T10:58:33;28.90;98.90
20700;DHT22;10511;51.232;9.420;2022-08-14T11:01:02;29.20;98.70
20700;DHT22;10511;51.232;9.420;2022-08-14T11:03:40;29.40;97.90
20700;DHT22;10511;51.232;9.420;2022-08-14T11:06:12;29.10;98.30
20700;DHT22;10511;51.232;9.420;2022-08-14T11:08:44;29.10;97.90
20700;DHT22;10511;51.232;9.420;2022-08-14T11:11:11;29.10;97.90
20700;DHT22;10511;51.232;9.420;2022-08-14T11:13:40;28.80;98.50
20700;DHT22;10511;51.232;9.420;2022-08-14T11:16:10;28.90;97.90
20700;DHT22;10511;51.232;9.420;2022-08-14T11:18:51;29.10;97.90
20700;DHT22;10511;51.232;9.420;2022-08-14T11:21:21;29.30;97.60
20700;DHT22;10511;51.232;9.420;2022-08-14T11:23:49;28.80;97.90
20700;DHT22;10511;51.232;9.420;2022-08-14T11:26:17;28.50;97.80
20700;DHT22;10511;51.232;9.420;2022-08-14T11:28:46;28.70;97.60
20700;DHT22;10511;51.232;9.420;2022-08-14T11:31:18;29.20;97.10
20700;DHT22;10511;51.232;9.420;2022-08-14T11:33:48;29.50;96.50
20700;DHT22;10511;51.232;9.420;2022-08-14T11:36:15;29.70;97.50
20700;DHT22;10511;51.232;9.420;2022-08-14T11:38:43;30.00;95.90
20700;DHT22;10511;51.232;9.420;2022-08-14T11:41:11;30.20;95.50
20700;DHT22;10511;51.232;9.420;2022-08-14T11:43:41;30.40;94.50
20700;DHT22;10511;51.232;9.420;2022-08-14T11:46:08;30.40;95.90
20700;DHT22;10511;51.232;9.420;2022-08-14T11:48:46;30.20;94.70
20700;DHT22;10511;51.232;9.420;2022-08-14T11:51:14;29.80;94.50
20700;DHT22;10511;51.232;9.420;2022-08-14T11:53:50;29.70;95.10
20700;DHT22;10511;51.232;9.420;2022-08-14T11:56:17;29.50;94.90
20700;DHT22;10511;51.232;9.420;2022-08-14T11:58:49;29.50;95.40
20700;DHT22;10511;51.232;9.420;2022-08-14T12:01:23;29.80;95.20
20700;DHT22;10511;51.232;9.420;2022-08-14T12:03:55;30.10;94.40
20700;DHT22;10511;51.232;9.420;2022-08-14T12:06:44;29.90;95.00
20700;DHT22;10511;51.232;9.420;2022-08-14T12:09:13;30.20;94.00
20700;DHT22;10511;51.232;9.420;2022-08-14T12:11:41;29.90;93.70
20700;DHT22;10511;51.232;9.420;2022-08-14T12:14:09;30.10;93.60
20700;DHT22;10511;51.232;9.420;2022-08-14T12:16:37;30.30;94.50
20700;DHT22;10511;51.232;9.420;2022-08-14T12:19:05;30.50;93.00
20700;DHT22;10511;51.232;9.420;2022-08-14T12:21:32;30.60;93.80
20700;DHT22;10511;51.232;9.420;2022-08-14T12:24:02;30.40;93.70
20700;DHT22;10511;51.232;9.420;2022-08-14T12:26:29;30.40;94.00
20700;DHT22;10511;51.232;9.420;2022-08-14T12:29:04;30.50;93.60
20700;DHT22;10511;51.232;9.420;2022-08-14T12:31:33;30.50;94.00
20700;DHT22;10511;51.232;9.420;2022-08-14T12:34:02;31.00;93.40
20700;DHT22;10511;51.232;9.420;2022-08-14T12:36:31;31.00;92.80
20700;DHT22;10511;51.232;9.420;2022-08-14T12:38:58;31.10;92.70
20700;DHT22;10511;51.232;9.420;2022-08-14T12:41:27;31.00;92.50
20700;DHT22;10511;51.232;9.420;2022-08-14T12:43:56;30.90;92.80
20700;DHT22;10511;51.232;9.420;2022-08-14T12:46:26;31.00;92.40
20700;DHT22;10511;51.232;9.420;2022-08-14T12:48:54;31.00;91.90
20700;DHT22;10511;51.232;9.420;2022-08-14T12:51:23;30.60;91.20
20700;DHT22;10511;51.232;9.420;2022-08-14T12:53:53;30.50;91.30
20700;DHT22;10511;51.232;9.420;2022-08-14T12:56:22;30.50;92.70
20700;DHT22;10511;51.232;9.420;2022-08-14T12:58:52;30.80;91.70
20700;DHT22;10511;51.232;9.420;2022-08-14T13:01:21;31.00;91.30
20700;DHT22;10511;51.232;9.420;2022-08-14T13:03:49;31.00;91.20
20700;DHT22;10511;51.232;9.420;2022-08-14T13:06:17;30.90;91.10
20700;DHT22;10511;51.232;9.420;2022-08-14T13:08:44;30.40;91.40
20700;DHT22;10511;51.232;9.420;2022-08-14T13:11:14;30.40;92.00
20700;DHT22;10511;51.232;9.420;2022-08-14T13:13:43;30.70;91.50
20700;DHT22;10511;51.232;9.420;2022-08-14T13:16:11;30.90;90.90
20700;DHT22;10511;51.232;9.420;2022-08-14T13:18:42;31.20;90.70
20700;DHT22;10511;51.232;9.420;2022-08-14T13:21:12;31.40;90.50
20700;DHT22;10511;51.232;9.420;2022-08-14T13:23:40;31.20;89.90
20700;DHT22;10511;51.232;9.420;2022-08-14T13:26:09;30.50;90.90
20700;DHT22;10511;51.232;9.420;2022-08-14T13:28:39;30.00;91.80
20700;DHT22;10511;51.232;9.420;2022-08-14T13:31:09;29.50;92.20
20700;DHT22;10511;51.232;9.420;2022-08-14T13:33:38;29.30;93.40
20700;DHT22;10511;51.232;9.420;2022-08-14T13:36:06;29.20;96.50
20700;DHT22;10511;51.232;9.420;2022-08-14T13:38:34;29.10;98.00
20700;DHT22;10511;51.232;9.420;2022-08-14T13:41:02;29.20;97.50
20700;DHT22;10511;51.232;9.420;2022-08-14T13:43:30;29.30;96.40
20700;DHT22;10511;51.232;9.420;2022-08-14T13:45:59;29.40;96.60
20700;DHT22;10511;51.232;9.420;2022-08-14T13:48:27;29.20;95.40
20700;DHT22;10511;51.232;9.420;2022-08-14T13:50:55;29.00;95.20
20700;DHT22;10511;51.232;9.420;2022-08-14T13:53:24;28.80;95.20
20700;DHT22;10511;51.232;9.420;2022-08-14T13:55:54;28.30;98.20
20700;DHT22;10511;51.232;9.420;2022-08-14T13:58:23;27.60;99.50
20700;DHT22;10511;51.232;9.420;2022-08-14T14:00:51;27.20;99.90
20700;DHT22;10511;51.232;9.420;2022-08-14T14:03:20;27.00;99.90
20700;DHT22;10511;51.232;9.420;2022-08-14T14:05:49;26.80;99.90
20700;DHT22;10511;51.232;9.420;2022-08-14T14:08:19;26.80;99.90
20700;DHT22;10511;51.232;9.420;2022-08-14T14:10:46;26.90;99.90
20700;DHT22;10511;51.232;9.420;2022-08-14T14:13:14;27.00;99.90
20700;DHT22;10511;51.232;9.420;2022-08-14T14:15:43;27.10;99.90
20700;DHT22;10511;51.232;9.420;2022-08-14T14:18:10;27.10;99.90
20700;DHT22;10511;51.232;9.420;2022-08-14T14:20:42;27.10;99.90
20700;DHT22;10511;51.232;9.420;2022-08-14T14:23:11;27.10;99.90
20700;DHT22;10511;51.232;9.420;2022-08-14T14:25:43;27.30;99.90
20700;DHT22;10511;51.232;9.420;2022-08-14T14:28:13;27.70;99.90
20700;DHT22;10511;51.232;9.420;2022-08-14T14:30:44;28.20;99.90
20700;DHT22;10511;51.232;9.420;2022-08-14T14:33:12;28.60;99.90
20700;DHT22;10511;51.232;9.420;2022-08-14T14:35:44;28.90;98.80
20700;DHT22;10511;51.232;9.420;2022-08-14T14:38:15;29.10;97.80
20700;DHT22;10511;51.232;9.420;2022-08-14T14:40:43;29.20;97.60
20700;DHT22;10511;51.232;9.420;2022-08-14T14:43:13;29.30;97.50
20700;DHT22;10511;51.232;9.420;2022-08-14T14:45:43;29.60;96.70
20700;DHT22;10511;51.232;9.420;2022-08-14T14:48:11;29.60;95.30
20700;DHT22;10511;51.232;9.420;2022-08-14T14:50:39;29.60;93.90
20700;DHT22;10511;51.232;9.420;2022-08-14T14:53:07;29.60;94.70
20700;DHT22;10511;51.232;9.420;2022-08-14T14:55:36;29.70;94.60
20700;DHT22;10511;51.232;9.420;2022-08-14T14:58:07;29.90;93.80
20700;DHT22;10511;51.232;9.420;2022-08-14T15:00:35;30.10;93.60
20700;DHT22;10511;51.232;9.420;2022-08-14T15:03:02;30.50;92.80
20700;DHT22;10511;51.232;9.420;2022-08-14T15:05:29;30.60;93.70
20700;DHT22;10511;51.232;9.420;2022-08-14T15:07:56;30.60;92.40
20700;DHT22;10511;51.232;9.420;2022-08-14T15:10:24;30.70;91.40
20700;DHT22;10511;51.232;9.420;2022-08-14T15:12:52;30.20;91.70
20700;DHT22;10511;51.232;9.420;2022-08-14T15:15:19;29.90;91.60
20700;DHT22;10511;51.232;9.420;2022-08-14T15:17:46;29.90;91.50
20700;DHT22;10511;51.232;9.420;2022-08-14T15:20:15;29.90;92.30
20700;DHT22;10511;51.232;9.420;2022-08-14T15:22:42;30.00;92.70
20700;DHT22;10511;51.232;9.420;2022-08-14T15:25:10;30.20;91.80
20700;DHT22;10511;51.232;9.420;2022-08-14T15:27:40;30.40;91.50
20700;DHT22;10511;51.232;9.420;2022-08-14T15:30:09;30.20;91.40
20700;DHT22;10511;51.232;9.420;2022-08-14T15:32:37;30.10;91.60
20700;DHT22;10511;51.232;9.420;2022-08-14T15:35:04;29.90;90.90
20700;DHT22;10511;51.232;9.420;2022-08-14T15:37:31;29.60;90.90
20700;DHT22;10511;51.232;9.420;2022-08-14T15:39:59;29.60;90.70
20700;DHT22;10511;51.232;9.420;2022-08-14T15:42:26;29.60;91.10